Time,TemperatureF,DewpointF,PressureIn,WindDirection,WindDirectionDegrees,WindSpeedMPH,WindSpeedGustMPH,Humidity,HourlyPrecipIn,Conditions,Clouds,dailyrainin,SoftwareType,DateUTC
2013-09-30 00:00:00,60.0,53.1,29.92,NNE,21,0.0,10.0,78,0.00,,,0.05,Wunderground v.1.15,2013-09-30 05:00:00,
2013-09-30 00:10:00,59.8,52.9,29.91,NNE,21,0.0,10.0,78,0.00,,,0.05,Wunderground v.1.15,2013-09-30 05:10:00,
2013-09-30 00:20:00,59.4,52.9,29.91,NNE,21,0.0,10.0,79,0.00,,,0.00,Wunderground v.1.15,2013-09-30 05:20:00,
2013-09-30 00:30:00,59.3,53.1,29.91,NNE,21,0.0,10.0,80,0.00,,,0.00,Wunderground v.1.15,2013-09-30 05:30:00,
2013-09-30 00:40:00,59.1,53.3,29.91,NNE,21,0.0,10.0,81,0.00,,,0.00,Wunderground v.1.15,2013-09-30 05:40:00,
2013-09-30 00:50:00,58.7,53.2,29.91,NNE,21,0.0,10.0,82,0.00,,,0.00,Wunderground v.1.15,2013-09-30 05:50:00,
2013-09-30 01:00:00,58.7,53.5,29.90,NNE,21,0.0,10.0,83,0.00,,,0.00,Wunderground v.1.15,2013-09-30 06:00:00,
2013-09-30 01:10:00,58.7,53.5,29.90,NNE,21,0.0,10.0,83,0.00,,,0.00,Wunderground v.1.15,2013-09-30 06:10:00,
2013-09-30 01:20:00,58.5,53.4,29.90,NNE,21,0.0,10.0,83,0.00,,,0.00,Wunderground v.1.15,2013-09-30 06:20:00,
2013-09-30 01:30:00,58.2,53.4,29.89,NNE,21,0.0,10.0,84,0.00,,,0.00,Wunderground v.1.15,2013-09-30 06:30:00,
2013-09-30 01:40:00,57.8,53.3,29.89,NNE,21,0.0,10.0,85,0.00,,,0.00,Wunderground v.1.15,2013-09-30 06:40:00,
2013-09-30 01:50:00,57.4,53.2,29.89,NNE,21,0.0,10.0,86,0.00,,,0.00,Wunderground v.1.15,2013-09-30 06:50:00,
2013-09-30 02:00:00,56.9,53.1,29.89,NNE,21,0.0,10.0,87,0.00,,,0.00,Wunderground v.1.15,2013-09-30 07:00:00,
2013-09-30 02:10:00,56.6,53.1,29.89,NNE,21,0.0,10.0,88,0.00,,,0.00,Wunderground v.1.15,2013-09-30 07:10:00,
2013-09-30 02:20:00,56.3,53.1,29.89,NNE,21,0.0,10.0,89,0.00,,,0.00,Wunderground v.1.15,2013-09-30 07:20:00,
2013-09-30 02:30:00,55.9,53.0,29.89,NNE,21,0.0,10.0,90,0.00,,,0.00,Wunderground v.1.15,2013-09-30 07:30:00,
2013-09-30 02:40:00,55.8,53.2,29.89,NNE,21,0.0,10.0,91,0.00,,,0.00,Wunderground v.1.15,2013-09-30 07:40:00,
2013-09-30 02:50:00,55.9,53.3,29.89,NNE,21,0.0,10.0,91,0.00,,,0.00,Wunderground v.1.15,2013-09-30 07:50:00,
2013-09-30 03:00:00,55.8,52.9,29.88,NNE,21,0.0,10.0,90,0.00,,,0.00,Wunderground v.1.15,2013-09-30 08:00:00,
2013-09-30 03:10:00,55.8,52.9,29.88,NNE,21,0.0,10.0,90,0.00,,,0.00,Wunderground v.1.15,2013-09-30 08:10:00,
2013-09-30 03:20:00,55.7,52.8,29.88,NNE,21,0.0,10.0,90,0.00,,,0.00,Wunderground v.1.15,2013-09-30 08:20:00,
2013-09-30 03:30:00,55.6,52.7,29.87,NNE,21,0.0,10.0,90,0.00,,,0.00,Wunderground v.1.15,2013-09-30 08:30:00,
2013-09-30 03:40:00,55.1,52.5,29.87,NNE,21,0.0,10.0,91,0.00,,,0.00,Wunderground v.1.15,2013-09-30 08:40:00,
2013-09-30 03:50:00,54.8,52.2,29.87,NNE,21,0.0,10.0,91,0.00,,,0.00,Wunderground v.1.15,2013-09-30 08:50:00,
2013-09-30 04:00:00,54.6,52.3,29.86,NNE,21,0.0,10.0,92,0.00,,,0.00,Wunderground v.1.15,2013-09-30 09:00:00,
2013-09-30 04:10:00,54.3,52.0,29.86,NNE,21,0.0,10.0,92,0.00,,,0.00,Wunderground v.1.15,2013-09-30 09:10:00,
2013-09-30 04:20:00,54.1,52.1,29.86,NNE,21,0.0,10.0,93,0.00,,,0.00,Wunderground v.1.15,2013-09-30 09:20:00,
2013-09-30 04:30:00,53.8,51.8,29.86,NNE,21,0.0,10.0,93,0.00,,,0.00,Wunderground v.1.15,2013-09-30 09:30:00,
2013-09-30 04:40:00,53.6,51.6,29.86,NNE,21,0.0,10.0,93,0.00,,,0.00,Wunderground v.1.15,2013-09-30 09:40:00,
2013-09-30 04:50:00,53.5,51.5,29.86,NNE,21,0.0,10.0,93,0.00,,,0.00,Wunderground v.1.15,2013-09-30 09:50:00,
2013-09-30 05:00:00,53.4,51.7,29.86,NNE,21,0.0,10.0,94,0.00,,,0.00,Wunderground v.1.15,2013-09-30 10:00:00,
2013-09-30 05:10:00,53.5,51.8,29.86,NNE,21,0.0,10.0,94,0.00,,,0.00,Wunderground v.1.15,2013-09-30 10:10:00,
2013-09-30 05:20:00,53.8,52.4,29.86,NNE,21,0.0,10.0,95,0.00,,,0.00,Wunderground v.1.15,2013-09-30 10:20:00,
2013-09-30 05:30:00,53.9,52.5,29.86,NNE,21,0.0,10.0,95,0.00,,,0.00,Wunderground v.1.15,2013-09-30 10:30:00,
2013-09-30 05:40:00,54.2,52.8,29.85,NNE,21,0.0,10.0,95,0.00,,,0.00,Wunderground v.1.15,2013-09-30 10:40:00,
2013-09-30 05:50:00,54.4,53.0,29.86,NNE,21,0.0,10.0,95,0.00,,,0.00,Wunderground v.1.15,2013-09-30 10:50:00,
2013-09-30 06:00:00,54.9,53.5,29.85,NNE,21,0.0,10.0,95,0.00,,,0.00,Wunderground v.1.15,2013-09-30 11:00:00,
2013-09-30 06:10:00,55.1,53.7,29.86,NNE,21,0.0,10.0,95,0.00,,,0.00,Wunderground v.1.15,2013-09-30 11:10:00,
2013-09-30 06:20:00,54.9,53.2,29.86,NNE,21,0.0,10.0,94,0.00,,,0.00,Wunderground v.1.15,2013-09-30 11:20:00,
2013-09-30 06:30:00,54.2,52.5,29.87,NNE,21,0.0,10.0,94,0.00,,,0.00,Wunderground v.1.15,2013-09-30 11:30:00,
2013-09-30 06:40:00,53.9,52.2,29.87,NNE,21,0.0,10.0,94,0.00,,,0.00,Wunderground v.1.15,2013-09-30 11:40:00,
2013-09-30 06:50:00,53.5,51.8,29.87,NNE,21,0.0,10.0,94,0.00,,,0.00,Wunderground v.1.15,2013-09-30 11:50:00,
2013-09-30 07:00:00,53.1,51.4,29.87,NNE,21,0.0,10.0,94,0.00,,,0.00,Wunderground v.1.15,2013-09-30 12:00:00,
2013-09-30 07:10:00,52.8,51.1,29.87,NNE,21,0.0,10.0,94,0.00,,,0.00,Wunderground v.1.15,2013-09-30 12:10:00,
2013-09-30 07:20:00,52.5,50.8,29.87,NNE,21,0.0,10.0,94,0.00,,,0.00,Wunderground v.1.15,2013-09-30 12:20:00,
2013-09-30 07:30:00,52.2,50.5,29.87,NNE,21,0.0,10.0,94,0.00,,,0.00,Wunderground v.1.15,2013-09-30 12:30:00,
2013-09-30 07:40:00,52.0,50.3,29.87,NNE,21,0.0,10.0,94,0.00,,,0.00,Wunderground v.1.15,2013-09-30 12:40:00,
2013-09-30 07:50:00,52.5,51.1,29.87,NNE,21,0.0,10.0,95,0.00,,,0.00,Wunderground v.1.15,2013-09-30 12:50:00,
2013-09-30 08:00:00,53.3,52.2,29.87,NNE,21,0.0,10.0,96,0.00,,,0.00,Wunderground v.1.15,2013-09-30 13:00:00,
2013-09-30 08:10:00,54.1,53.0,29.88,NNE,21,0.0,10.0,96,0.00,,,0.01,Wunderground v.1.15,2013-09-30 13:10:00,
2013-09-30 08:20:00,55.0,53.6,29.88,NNE,21,0.0,10.0,95,0.00,,,0.01,Wunderground v.1.15,2013-09-30 13:20:00,
2013-09-30 08:30:00,56.2,54.8,29.88,NNE,21,0.0,10.0,95,0.00,,,0.01,Wunderground v.1.15,2013-09-30 13:30:00,
2013-09-30 08:40:00,57.3,55.6,29.88,NNE,21,0.0,10.0,94,0.00,,,0.01,Wunderground v.1.15,2013-09-30 13:40:00,
2013-09-30 08:50:00,58.8,56.8,29.88,NNE,21,0.0,10.0,93,0.00,,,0.01,Wunderground v.1.15,2013-09-30 13:50:00,
2013-09-30 09:00:00,60.6,58.0,29.88,NNE,21,0.0,10.0,91,0.00,,,0.01,Wunderground v.1.15,2013-09-30 14:00:00,
2013-09-30 09:10:00,62.3,59.0,29.88,NNE,21,0.0,10.0,89,0.00,,,0.01,Wunderground v.1.15,2013-09-30 14:10:00,
2013-09-30 09:20:00,63.6,59.3,29.88,NNE,21,0.0,10.0,86,0.00,,,0.01,Wunderground v.1.15,2013-09-30 14:20:00,
2013-09-30 09:30:00,64.5,59.6,29.88,NNE,21,0.0,10.0,84,0.00,,,0.01,Wunderground v.1.15,2013-09-30 14:30:00,
2013-09-30 09:40:00,65.1,59.5,29.88,NNE,21,0.0,10.0,82,0.00,,,0.01,Wunderground v.1.15,2013-09-30 14:40:00,
2013-09-30 09:50:00,65.8,59.8,29.87,NNE,21,0.0,10.0,81,0.00,,,0.01,Wunderground v.1.15,2013-09-30 14:50:00,
2013-09-30 10:00:00,66.7,60.7,29.87,NNE,22,0.0,10.0,81,0.00,,,0.01,Wunderground v.1.15,2013-09-30 15:00:00,
2013-09-30 10:10:00,68.1,60.6,29.86,ENE,65,1.0,1.0,77,0.00,,,0.01,Wunderground v.1.15,2013-09-30 15:10:00,
2013-09-30 10:20:00,69.3,61.0,29.86,ENE,65,1.0,1.0,75,0.00,,,0.01,Wunderground v.1.15,2013-09-30 15:20:00,
2013-09-30 10:30:00,70.6,61.1,29.86,ENE,65,0.0,10.0,72,0.00,,,0.01,Wunderground v.1.15,2013-09-30 15:30:00,
2013-09-30 10:40:00,71.8,61.9,29.86,ENE,67,0.0,10.0,71,0.00,,,0.01,Wunderground v.1.15,2013-09-30 15:40:00,
2013-09-30 10:50:00,73.1,62.3,29.86,ENE,76,1.0,1.0,69,0.00,,,0.01,Wunderground v.1.15,2013-09-30 15:50:00,
2013-09-30 11:00:00,74.1,62.4,29.86,ENE,76,0.0,10.0,67,0.00,,,0.01,Wunderground v.1.15,2013-09-30 16:00:00,
2013-09-30 11:10:00,75.3,62.7,29.86,ENE,76,0.0,10.0,65,0.00,,,0.01,Wunderground v.1.15,2013-09-30 16:10:00,
2013-09-30 11:20:00,76.4,62.9,29.86,ENE,76,0.0,10.0,63,0.00,,,0.01,Wunderground v.1.15,2013-09-30 16:20:00,
2013-09-30 11:30:00,77.0,63.4,29.86,ENE,76,0.0,10.0,63,0.00,,,0.01,Wunderground v.1.15,2013-09-30 16:30:00,
2013-09-30 11:40:00,78.1,64.0,29.85,ENE,75,0.0,10.0,62,0.00,,,0.01,Wunderground v.1.15,2013-09-30 16:40:00,
2013-09-30 11:50:00,78.8,63.7,29.85,East,101,0.0,10.0,60,0.00,,,0.01,Wunderground v.1.15,2013-09-30 16:50:00,
2013-09-30 12:00:00,80.1,63.5,29.85,SE,130,1.0,10.0,57,0.00,,,0.01,Wunderground v.1.15,2013-09-30 17:00:00,
2013-09-30 12:10:00,81.0,63.3,29.84,SE,133,1.0,1.0,55,0.00,,,0.01,Wunderground v.1.15,2013-09-30 17:10:00,
2013-09-30 12:20:00,82.2,62.3,29.84,SSE,147,1.0,10.0,51,0.00,,,0.01,Wunderground v.1.15,2013-09-30 17:20:00,
2013-09-30 12:30:00,83.2,62.6,29.83,SSE,154,0.0,10.0,50,0.00,,,0.01,Wunderground v.1.15,2013-09-30 17:30:00,
2013-09-30 12:40:00,83.6,61.8,29.83,SSE,155,0.0,10.0,48,0.00,,,0.01,Wunderground v.1.15,2013-09-30 17:40:00,
2013-09-30 12:50:00,83.7,60.7,29.82,SSE,158,1.0,1.0,46,0.00,,,0.01,Wunderground v.1.15,2013-09-30 17:50:00,
2013-09-30 13:00:00,84.4,60.7,29.82,SSE,161,1.0,1.0,45,0.00,,,0.01,Wunderground v.1.15,2013-09-30 18:00:00,
2013-09-30 13:10:00,84.6,59.0,29.82,South,177,1.0,1.0,42,0.00,,,0.01,Wunderground v.1.15,2013-09-30 18:10:00,
2013-09-30 13:20:00,85.4,56.9,29.81,South,177,0.0,10.0,38,0.00,,,0.01,Wunderground v.1.15,2013-09-30 18:20:00,
2013-09-30 13:30:00,85.8,59.4,29.81,South,178,1.0,10.0,41,0.00,,,0.01,Wunderground v.1.15,2013-09-30 18:30:00,
2013-09-30 13:40:00,86.4,59.9,29.80,SSW,192,1.0,1.0,41,0.00,,,0.01,Wunderground v.1.15,2013-09-30 18:40:00,
2013-09-30 13:50:00,87.0,56.8,29.80,South,188,1.0,10.0,36,0.00,,,0.01,Wunderground v.1.15,2013-09-30 18:50:00,
2013-09-30 14:00:00,87.0,56.8,29.79,SW,218,3.0,3.0,36,0.00,,,0.01,Wunderground v.1.15,2013-09-30 19:00:00,
2013-09-30 14:10:00,87.2,57.8,29.78,SW,218,0.0,10.0,37,0.00,,,0.01,Wunderground v.1.15,2013-09-30 19:10:00,
2013-09-30 14:20:00,87.4,56.4,29.78,SSE,153,2.0,10.0,35,0.00,,,0.01,Wunderground v.1.15,2013-09-30 19:20:00,
2013-09-30 14:30:00,87.5,56.5,29.78,South,178,3.0,10.0,35,0.00,,,0.01,Wunderground v.1.15,2013-09-30 19:30:00,
2013-09-30 14:40:00,87.5,54.9,29.77,SSE,147,5.0,5.0,33,0.00,,,0.01,Wunderground v.1.15,2013-09-30 19:40:00,
2013-09-30 14:50:00,87.6,54.9,29.77,South,177,6.0,10.0,33,0.00,,,0.01,Wunderground v.1.15,2013-09-30 19:50:00,
2013-09-30 15:00:00,87.6,55.8,29.76,South,173,2.0,2.0,34,0.00,,,0.01,Wunderground v.1.15,2013-09-30 20:00:00,
2013-09-30 15:10:00,88.4,54.8,29.76,SSW,196,1.0,1.0,32,0.00,,,0.01,Wunderground v.1.15,2013-09-30 20:10:00,
2013-09-30 15:20:00,88.1,53.7,29.76,SE,145,3.0,3.0,31,0.00,,,0.01,Wunderground v.1.15,2013-09-30 20:20:00,
2013-09-30 15:30:00,87.9,55.2,29.76,SE,142,3.0,3.0,33,0.00,,,0.01,Wunderground v.1.15,2013-09-30 20:30:00,
2013-09-30 15:40:00,88.4,53.9,29.75,SSE,165,5.0,5.0,31,0.00,,,0.01,Wunderground v.1.15,2013-09-30 20:40:00,
2013-09-30 15:50:00,88.3,54.7,29.75,SSE,154,1.0,1.0,32,0.00,,,0.01,Wunderground v.1.15,2013-09-30 20:50:00,
2013-09-30 16:00:00,88.2,54.6,29.75,SE,126,3.0,3.0,32,0.00,,,0.01,Wunderground v.1.15,2013-09-30 21:00:00,
2013-09-30 16:10:00,88.1,54.5,29.75,SE,136,6.0,6.0,32,0.00,,,0.01,Wunderground v.1.15,2013-09-30 21:10:00,
2013-09-30 16:20:00,88.8,53.4,29.75,South,186,5.0,5.0,30,0.00,,,0.01,Wunderground v.1.15,2013-09-30 21:20:00,
2013-09-30 16:30:00,88.7,54.2,29.74,South,180,3.0,3.0,31,0.00,,,0.01,Wunderground v.1.15,2013-09-30 21:30:00,
2013-09-30 16:40:00,88.3,55.6,29.75,SE,143,6.0,10.0,33,0.00,,,0.01,Wunderground v.1.15,2013-09-30 21:40:00,
2013-09-30 16:50:00,87.6,55.8,29.75,ESE,111,5.0,5.0,34,0.00,,,0.01,Wunderground v.1.15,2013-09-30 21:50:00,
2013-09-30 17:00:00,87.9,56.0,29.75,SE,138,4.0,10.0,34,0.00,,,0.01,Wunderground v.1.15,2013-09-30 22:00:00,
2013-09-30 17:10:00,87.5,55.7,29.75,SSE,161,6.0,10.0,34,0.00,,,0.01,Wunderground v.1.15,2013-09-30 22:10:00,
2013-09-30 17:20:00,87.2,55.4,29.75,SSE,160,3.0,10.0,34,0.00,,,0.01,Wunderground v.1.15,2013-09-30 22:20:00,
2013-09-30 17:30:00,87.0,54.4,29.74,SSE,159,2.0,2.0,33,0.00,,,0.01,Wunderground v.1.15,2013-09-30 22:30:00,
2013-09-30 17:40:00,87.4,55.6,29.74,South,170,4.0,4.0,34,0.00,,,0.01,Wunderground v.1.15,2013-09-30 22:40:00,
2013-09-30 17:50:00,87.0,56.0,29.74,SSE,155,4.0,10.0,35,0.00,,,0.01,Wunderground v.1.15,2013-09-30 22:50:00,
2013-09-30 18:00:00,86.8,55.9,29.74,SSE,159,3.0,3.0,35,0.00,,,0.01,Wunderground v.1.15,2013-09-30 23:00:00,
2013-09-30 18:10:00,86.5,55.6,29.74,SSE,163,3.0,10.0,35,0.00,,,0.01,Wunderground v.1.15,2013-09-30 23:10:00,
2013-09-30 18:20:00,86.1,56.8,29.74,South,169,5.0,5.0,37,0.00,,,0.01,Wunderground v.1.15,2013-09-30 23:20:00,
2013-09-30 18:30:00,85.7,57.9,29.74,SE,144,3.0,10.0,39,0.00,,,0.01,Wunderground v.1.15,2013-09-30 23:30:00,
2013-09-30 18:40:00,85.2,58.2,29.75,SSE,148,4.0,10.0,40,0.00,,,0.01,Wunderground v.1.15,2013-09-30 23:40:00,
2013-09-30 18:50:00,84.6,58.3,29.75,SE,145,3.0,3.0,41,0.00,,,0.01,Wunderground v.1.15,2013-09-30 23:50:00,
2013-09-30 19:00:00,83.7,58.8,29.75,SE,144,1.0,1.0,43,0.00,,,0.01,Wunderground v.1.15,2013-10-01 00:00:00,
2013-09-30 19:10:00,82.8,59.3,29.75,SE,144,0.0,10.0,45,0.00,,,0.01,Wunderground v.1.15,2013-10-01 00:10:00,
2013-09-30 19:20:00,81.5,59.3,29.75,SE,144,0.0,10.0,47,0.00,,,0.01,Wunderground v.1.15,2013-10-01 00:20:00,
2013-09-30 19:30:00,80.5,59.0,29.75,SE,144,0.0,10.0,48,0.00,,,0.01,Wunderground v.1.15,2013-10-01 00:30:00,
2013-09-30 19:40:00,79.8,57.8,29.76,SE,144,1.0,1.0,47,0.00,,,0.01,Wunderground v.1.15,2013-10-01 00:40:00,
2013-09-30 19:50:00,78.9,57.5,29.76,SE,144,0.0,10.0,48,0.00,,,0.01,Wunderground v.1.15,2013-10-01 00:50:00,
2013-09-30 20:00:00,78.0,57.3,29.76,SE,144,0.0,10.0,49,0.00,,,0.01,Wunderground v.1.15,2013-10-01 01:00:00,
2013-09-30 20:10:00,77.3,56.6,29.76,SE,144,0.0,10.0,49,0.00,,,0.01,Wunderground v.1.15,2013-10-01 01:10:00,
2013-09-30 20:20:00,76.9,56.3,29.77,SE,144,0.0,10.0,49,0.00,,,0.01,Wunderground v.1.15,2013-10-01 01:20:00,
2013-09-30 20:30:00,76.4,55.8,29.77,SE,144,0.0,10.0,49,0.00,,,0.01,Wunderground v.1.15,2013-10-01 01:30:00,
2013-09-30 20:40:00,75.8,55.8,29.77,SE,144,1.0,1.0,50,0.00,,,0.01,Wunderground v.1.15,2013-10-01 01:40:00,
2013-09-30 20:50:00,75.4,55.5,29.78,SE,144,0.0,10.0,50,0.00,,,0.01,Wunderground v.1.15,2013-10-01 01:50:00,
2013-09-30 21:00:00,74.9,56.1,29.78,SE,144,0.0,10.0,52,0.00,,,0.01,Wunderground v.1.15,2013-10-01 02:00:00,
2013-09-30 21:10:00,74.4,56.2,29.78,SE,144,0.0,10.0,53,0.00,,,0.01,Wunderground v.1.15,2013-10-01 02:10:00,
2013-09-30 21:20:00,73.8,56.1,29.78,SE,144,0.0,10.0,54,0.00,,,0.01,Wunderground v.1.15,2013-10-01 02:20:00,
2013-09-30 21:30:00,73.1,56.0,29.78,SE,144,0.0,10.0,55,0.00,,,0.01,Wunderground v.1.15,2013-10-01 02:30:00,
2013-09-30 21:40:00,72.5,56.4,29.79,SE,144,0.0,10.0,57,0.00,,,0.01,Wunderground v.1.15,2013-10-01 02:40:00,
2013-09-30 21:50:00,71.8,56.2,29.79,SE,144,1.0,1.0,58,0.00,,,0.01,Wunderground v.1.15,2013-10-01 02:50:00,
2013-09-30 22:00:00,71.6,56.0,29.79,SE,144,1.0,10.0,58,0.00,,,0.01,Wunderground v.1.15,2013-10-01 03:00:00,
2013-09-30 22:10:00,71.0,55.9,29.79,SE,144,1.0,10.0,59,0.00,,,0.01,Wunderground v.1.15,2013-10-01 03:10:00,
2013-09-30 22:20:00,70.6,55.6,29.80,SE,144,1.0,10.0,59,0.00,,,0.01,Wunderground v.1.15,2013-10-01 03:20:00,
2013-09-30 22:30:00,70.3,55.8,29.80,SE,144,0.0,10.0,60,0.00,,,0.01,Wunderground v.1.15,2013-10-01 03:30:00,
2013-09-30 22:40:00,70.0,55.5,29.80,SE,144,0.0,10.0,60,0.00,,,0.01,Wunderground v.1.15,2013-10-01 03:40:00,
2013-09-30 22:50:00,69.6,55.6,29.80,SE,144,0.0,10.0,61,0.00,,,0.01,Wunderground v.1.15,2013-10-01 03:50:00,
2013-09-30 23:00:00,69.4,55.8,29.79,SE,144,0.0,10.0,62,0.00,,,0.01,Wunderground v.1.15,2013-10-01 04:00:00,
2013-09-30 23:10:00,69.0,55.4,29.79,SE,144,0.0,10.0,62,0.00,,,0.01,Wunderground v.1.15,2013-10-01 04:10:00,
2013-09-30 23:20:00,68.9,55.8,29.79,SE,144,0.0,10.0,63,0.00,,,0.01,Wunderground v.1.15,2013-10-01 04:20:00,
2013-09-30 23:30:00,68.6,55.5,29.79,SE,144,0.0,10.0,63,0.00,,,0.01,Wunderground v.1.15,2013-10-01 04:30:00,
2013-09-30 23:40:00,68.3,55.6,29.79,SE,144,0.0,10.0,64,0.00,,,0.01,Wunderground v.1.15,2013-10-01 04:40:00,
2013-09-30 23:50:00,68.1,55.5,29.79,SE,144,0.0,10.0,64,0.00,,,0.01,Wunderground v.1.15,2013-10-01 04:50:00,